createdAt,value
2018-06-11T00:02:02.570Z,24.90
2018-06-11T00:04:34.187Z,24.80
2018-06-11T00:07:05.374Z,24.70
2018-06-11T00:09:35.147Z,24.70
2018-06-11T00:12:04.910Z,24.60
2018-06-11T00:14:33.112Z,26.70
2018-06-11T00:17:01.958Z,24.60
2018-06-11T00:19:31.359Z,24.60
2018-06-11T00:24:28.433Z,24.70
2018-06-11T00:26:57.683Z,24.60
2018-06-11T00:29:26.558Z,24.70
2018-06-11T00:31:54.969Z,24.70
2018-06-11T00:34:23.628Z,24.70
2018-06-11T00:36:52.978Z,24.70
2018-06-11T00:41:51.554Z,24.70
2018-06-11T00:44:19.280Z,24.60
2018-06-11T00:49:15.713Z,24.40
2018-06-11T00:51:44.741Z,24.40
2018-06-11T00:54:12.302Z,24.40
2018-06-11T00:56:42.758Z,24.40
2018-06-11T00:59:10.960Z,24.40
2018-06-11T01:06:35.040Z,24.60
2018-06-11T01:14:01.347Z,24.50
2018-06-11T01:16:28.873Z,24.50
2018-06-11T01:18:56.464Z,24.50
2018-06-11T01:21:25.459Z,24.50
2018-06-11T01:23:53.653Z,24.40
2018-06-11T01:26:23.633Z,24.40
2018-06-11T01:28:51.988Z,24.40
2018-06-11T01:31:20.089Z,24.40
2018-06-11T01:33:48.079Z,24.40
2018-06-11T01:36:16.819Z,24.40
2018-06-11T01:38:45.324Z,24.40
2018-06-11T01:41:13.537Z,24.30
2018-06-11T01:43:42.479Z,24.30
2018-06-11T01:46:11.066Z,24.20
2018-06-11T01:48:38.854Z,24.30
2018-06-11T01:51:08.054Z,24.30
2018-06-11T01:53:36.624Z,24.30
2018-06-11T01:56:04.552Z,24.30
2018-06-11T01:58:33.387Z,24.30
2018-06-11T02:01:01.353Z,24.30
2018-06-11T02:03:29.232Z,24.30
2018-06-11T02:05:56.684Z,24.30
2018-06-11T02:08:26.158Z,24.30
2018-06-11T02:10:55.816Z,24.20
2018-06-11T02:13:23.613Z,24.20
2018-06-11T02:15:52.875Z,24.20
2018-06-11T02:18:25.821Z,24.10
2018-06-11T02:20:54.099Z,24.10
2018-06-11T02:23:21.622Z,24.10
2018-06-11T02:25:50.536Z,24.10
2018-06-11T02:28:18.604Z,24.00
2018-06-11T02:30:46.804Z,24.00
2018-06-11T02:38:14.828Z,24.10
2018-06-11T02:40:42.870Z,24.10
2018-06-11T02:43:12.572Z,24.20
2018-06-11T02:45:41.884Z,24.10
2018-06-11T02:48:09.760Z,24.10
2018-06-11T02:50:37.660Z,24.10
2018-06-11T02:53:07.944Z,24.10
2018-06-11T02:55:37.249Z,24.10
2018-06-11T02:58:04.845Z,24.20
2018-06-11T03:00:33.389Z,24.10
2018-06-11T03:03:01.969Z,24.10
2018-06-11T03:07:59.136Z,24.10
2018-06-11T03:10:27.910Z,24.10
2018-06-11T03:15:24.945Z,24.10
2018-06-11T03:17:54.068Z,24.10
2018-06-11T03:20:21.581Z,24.00
2018-06-11T03:22:50.824Z,24.00
2018-06-11T03:25:18.420Z,24.00
2018-06-11T03:27:47.681Z,24.00
2018-06-11T03:30:17.393Z,24.00
2018-06-11T03:32:49.001Z,24.00
2018-06-11T03:35:16.968Z,24.00
2018-06-11T03:37:45.178Z,23.90
2018-06-11T03:40:15.384Z,23.90
2018-06-11T03:47:40.070Z,24.00
2018-06-11T03:50:07.755Z,24.00
2018-06-11T03:55:07.379Z,24.00
2018-06-11T03:57:35.502Z,23.90
2018-06-11T04:00:04.873Z,24.00
2018-06-11T04:02:32.630Z,24.00
2018-06-11T04:05:06.523Z,23.90
2018-06-11T04:07:36.833Z,23.90
2018-06-11T04:10:06.285Z,24.00
2018-06-11T04:12:36.028Z,24.00
2018-06-11T04:15:06.798Z,24.10
2018-06-11T04:17:36.996Z,24.10
2018-06-11T04:20:08.125Z,24.10
2018-06-11T04:22:35.814Z,24.10
2018-06-11T04:25:03.975Z,24.10
2018-06-11T04:27:31.871Z,24.20
2018-06-11T04:30:03.055Z,24.20
2018-06-11T04:34:59.277Z,24.20
2018-06-11T04:37:28.318Z,24.30
2018-06-11T04:39:59.780Z,24.40
2018-06-11T04:42:28.392Z,24.40
2018-06-11T04:44:56.820Z,24.40
2018-06-11T04:47:24.303Z,24.40
2018-06-11T04:49:52.893Z,24.40
2018-06-11T04:52:22.728Z,24.40
2018-06-11T04:54:54.167Z,24.50
2018-06-11T04:57:27.877Z,24.50
2018-06-11T04:59:55.355Z,24.60
2018-06-11T05:02:24.636Z,24.60
2018-06-11T05:04:54.706Z,24.60
2018-06-11T05:07:24.681Z,24.70
2018-06-11T05:09:52.632Z,24.70
2018-06-11T05:12:21.073Z,24.90
2018-06-11T05:14:51.137Z,24.90
2018-06-11T05:17:22.494Z,25.00
2018-06-11T05:19:51.261Z,25.00
2018-06-11T05:22:18.854Z,25.00
2018-06-11T05:24:48.839Z,25.10
2018-06-11T05:27:17.255Z,25.20
2018-06-11T05:29:44.856Z,25.20
2018-06-11T05:32:14.523Z,25.20
2018-06-11T05:34:43.881Z,25.20
2018-06-11T05:37:13.040Z,25.30
2018-06-11T05:39:42.590Z,25.30
2018-06-11T05:42:10.116Z,25.20
2018-06-11T05:44:37.617Z,25.20
2018-06-11T05:47:05.301Z,25.20
2018-06-11T05:49:32.752Z,25.30
2018-06-11T05:52:00.929Z,25.60
2018-06-11T05:57:00.439Z,25.80
2018-06-11T05:59:28.502Z,25.70
2018-06-11T06:01:56.077Z,25.70
2018-06-11T06:04:24.584Z,25.70
2018-06-11T06:06:54.047Z,25.90
2018-06-11T06:09:24.318Z,26.00
2018-06-11T06:11:51.851Z,26.00
2018-06-11T06:14:19.457Z,25.90
2018-06-11T06:16:47.753Z,25.90
2018-06-11T06:19:15.960Z,25.60
2018-06-11T06:21:44.104Z,25.60
2018-06-11T06:24:14.584Z,25.60
2018-06-11T06:26:43.623Z,25.60
2018-06-11T06:29:12.488Z,25.60
2018-06-11T06:31:40.145Z,25.60
2018-06-11T06:34:08.619Z,25.70
2018-06-11T06:36:37.762Z,25.70
2018-06-11T06:39:08.880Z,25.90
2018-06-11T06:41:37.329Z,26.30
2018-06-11T06:44:06.063Z,27.20
2018-06-11T06:46:35.214Z,27.80
2018-06-11T06:49:04.004Z,28.20
2018-06-11T06:51:32.625Z,28.20
2018-06-11T06:54:02.155Z,28.70
2018-06-11T06:56:30.196Z,29.00
2018-06-11T06:58:59.115Z,28.70
2018-06-11T07:01:27.247Z,28.60
2018-06-11T07:03:55.924Z,28.60
2018-06-11T07:06:23.580Z,28.80
2018-06-11T07:08:51.963Z,29.10
2018-06-11T07:13:50.157Z,29.10
2018-06-11T07:18:47.577Z,29.20
2018-06-11T07:21:15.638Z,29.60
2018-06-11T07:23:45.887Z,29.90
2018-06-11T07:26:15.331Z,30.30
2018-06-11T07:28:43.027Z,30.30
2018-06-11T07:31:12.139Z,30.20
2018-06-11T07:33:40.829Z,29.60
2018-06-11T07:36:09.684Z,28.60
2018-06-11T07:38:38.912Z,28.30
2018-06-11T07:41:08.511Z,28.30
2018-06-11T07:43:39.834Z,28.20
2018-06-11T07:46:08.825Z,28.20
2018-06-11T07:53:37.440Z,27.80
2018-06-11T07:58:34.129Z,27.60
2018-06-11T08:01:02.572Z,27.30
2018-06-11T08:03:31.602Z,27.20
2018-06-11T08:06:01.054Z,27.10
2018-06-11T08:08:28.535Z,27.00
2018-06-11T08:10:56.064Z,26.90
2018-06-11T08:13:26.502Z,26.90
2018-06-11T08:15:55.388Z,26.70
2018-06-11T08:18:22.963Z,26.80
2018-06-11T08:20:51.670Z,26.80
2018-06-11T08:23:19.322Z,26.70
2018-06-11T08:28:14.798Z,26.70
2018-06-11T08:30:42.808Z,26.90
2018-06-11T08:33:12.648Z,26.70
2018-06-11T08:35:40.789Z,26.70
2018-06-11T08:38:09.110Z,26.60
2018-06-11T08:40:37.400Z,26.60
2018-06-11T08:43:05.576Z,26.50
2018-06-11T08:45:33.108Z,26.50
2018-06-11T08:48:01.573Z,26.50
2018-06-11T08:50:30.014Z,26.50
2018-06-11T08:52:57.785Z,26.50
2018-06-11T08:55:26.359Z,26.50
2018-06-11T08:57:55.898Z,26.50
2018-06-11T09:00:24.893Z,26.50
2018-06-11T09:02:52.988Z,26.50
2018-06-11T09:05:21.664Z,26.50
2018-06-11T09:07:49.902Z,26.60
2018-06-11T09:10:17.621Z,26.40
2018-06-11T09:12:46.990Z,26.40
2018-06-11T09:15:15.652Z,26.30
2018-06-11T09:17:43.917Z,26.30
2018-06-11T09:20:12.587Z,26.30
2018-06-11T09:22:42.326Z,26.40
2018-06-11T09:25:10.480Z,26.40
2018-06-11T09:27:38.051Z,26.50
2018-06-11T09:30:06.643Z,26.60
2018-06-11T09:32:34.687Z,26.80
2018-06-11T09:37:30.743Z,27.20
2018-06-11T09:40:00.984Z,27.40
2018-06-11T09:42:29.356Z,27.50
2018-06-11T09:44:59.321Z,27.70
2018-06-11T09:47:27.204Z,28.10
2018-06-11T09:49:55.447Z,28.30
2018-06-11T09:52:22.912Z,28.30
2018-06-11T09:54:51.327Z,28.50
2018-06-11T09:57:19.336Z,28.70
2018-06-11T09:59:47.536Z,28.80
2018-06-11T10:02:16.696Z,28.80
2018-06-11T10:04:46.218Z,28.90
2018-06-11T10:07:17.053Z,29.00
2018-06-11T10:09:46.023Z,29.10
2018-06-11T10:12:14.225Z,29.30
2018-06-11T10:14:43.963Z,29.40
2018-06-11T10:17:14.431Z,29.20
2018-06-11T10:19:42.871Z,29.20
2018-06-11T10:22:12.038Z,29.00
2018-06-11T10:24:40.462Z,29.20
2018-06-11T10:29:38.889Z,29.00
2018-06-11T10:32:07.528Z,28.90
2018-06-11T10:34:36.089Z,29.00
2018-06-11T10:37:05.202Z,28.90
2018-06-11T10:39:35.764Z,28.90
2018-06-11T10:44:33.384Z,28.80
2018-06-11T10:47:02.385Z,28.80
2018-06-11T10:49:32.740Z,28.80
2018-06-11T10:52:03.161Z,28.80
2018-06-11T10:54:32.104Z,28.70
2018-06-11T10:57:03.831Z,28.70
2018-06-11T11:02:01.047Z,28.60
2018-06-11T11:04:29.448Z,28.60
2018-06-11T11:06:58.864Z,28.60
2018-06-11T11:09:28.588Z,28.70
2018-06-11T11:12:02.177Z,28.90
2018-06-11T11:24:16.336Z,29.30
2018-06-11T11:26:46.824Z,29.30
2018-06-11T11:29:18.353Z,29.30
2018-06-11T11:31:45.925Z,29.30
2018-06-11T11:34:13.495Z,29.20
2018-06-11T11:36:43.259Z,29.10
2018-06-11T11:39:16.999Z,29.10
2018-06-11T11:44:15.098Z,29.00
2018-06-11T11:46:44.653Z,28.80
2018-06-11T11:49:12.126Z,28.80
2018-06-11T11:51:45.219Z,28.70
2018-06-11T11:54:19.351Z,28.60
2018-06-11T11:56:49.122Z,28.60
2018-06-11T11:59:16.657Z,28.40
2018-06-11T12:01:46.507Z,28.30
2018-06-11T12:04:14.615Z,28.30
2018-06-11T12:06:42.655Z,28.10
2018-06-11T12:09:10.147Z,28.10
2018-06-11T12:11:37.625Z,27.90
2018-06-11T12:14:06.022Z,27.90
2018-06-11T12:16:34.113Z,27.80
2018-06-11T12:19:03.345Z,27.80
2018-06-11T12:21:30.798Z,27.80
2018-06-11T12:23:58.413Z,27.60
2018-06-11T12:26:26.835Z,27.60
2018-06-11T12:28:54.505Z,27.50
2018-06-11T12:31:22.842Z,27.50
2018-06-11T12:33:51.410Z,27.40
2018-06-11T12:36:18.948Z,27.40
2018-06-11T12:38:47.809Z,27.20
2018-06-11T12:41:16.655Z,27.20
2018-06-11T12:43:44.740Z,27.20
2018-06-11T12:46:14.004Z,27.20
2018-06-11T12:48:43.082Z,27.10
2018-06-11T12:53:40.631Z,26.70
2018-06-11T12:56:09.725Z,26.60
2018-06-11T12:58:38.055Z,26.60
2018-06-11T13:01:05.771Z,26.50
2018-06-11T13:03:33.409Z,26.50
2018-06-11T13:06:01.409Z,26.50
2018-06-11T13:08:28.922Z,26.40
2018-06-11T13:10:56.457Z,26.50
2018-06-11T13:13:26.151Z,26.40
2018-06-11T13:15:53.918Z,26.40
2018-06-11T13:18:21.541Z,26.40
2018-06-11T13:20:49.773Z,26.40
2018-06-11T13:23:17.421Z,26.20
2018-06-11T13:25:45.015Z,26.10
2018-06-11T13:28:14.284Z,26.00
2018-06-11T13:30:42.141Z,26.00
2018-06-11T13:33:10.488Z,26.00
2018-06-11T13:35:38.101Z,26.00
2018-06-11T13:38:05.647Z,26.00
2018-06-11T13:40:33.206Z,26.00
2018-06-11T13:43:01.355Z,26.00
2018-06-11T13:45:28.865Z,26.00
2018-06-11T13:47:56.781Z,26.00
2018-06-11T13:50:25.037Z,25.90
2018-06-11T13:52:53.175Z,25.80
2018-06-11T13:55:21.836Z,25.60
2018-06-11T13:57:50.746Z,25.50
2018-06-11T14:00:20.152Z,25.50
2018-06-11T14:02:48.183Z,25.50
2018-06-11T14:05:15.786Z,25.50
2018-06-11T14:07:43.299Z,25.50
2018-06-11T14:10:11.010Z,25.50
2018-06-11T14:16:32.982Z,25.50
2018-06-11T14:19:06.608Z,25.50
2018-06-11T14:24:02.916Z,25.40
2018-06-11T14:26:32.830Z,25.40
2018-06-11T14:29:04.849Z,25.30
2018-06-11T14:31:32.978Z,25.20
2018-06-11T14:34:02.959Z,25.10
2018-06-11T14:41:28.672Z,25.00
2018-06-11T14:51:20.731Z,24.80
2018-06-11T14:53:51.435Z,24.60
2018-06-11T14:56:19.524Z,24.60
2018-06-11T14:58:50.371Z,24.60
2018-06-11T15:01:19.172Z,24.50
2018-06-11T15:03:47.002Z,24.50
2018-06-11T15:06:14.505Z,24.50
2018-06-11T15:08:42.093Z,24.50
2018-06-11T15:11:10.976Z,24.50
2018-06-11T15:16:07.841Z,24.40
2018-06-11T15:18:35.920Z,24.30
2018-06-11T15:21:03.764Z,24.30
2018-06-11T15:23:32.656Z,24.20
2018-06-11T15:26:01.172Z,24.20
2018-06-11T15:28:28.917Z,24.10
2018-06-11T15:30:57.045Z,24.10
2018-06-11T15:33:25.210Z,24.00
2018-06-11T15:35:52.740Z,24.00
2018-06-11T15:38:20.685Z,24.00
2018-06-11T15:40:48.724Z,23.90
2018-06-11T15:43:16.249Z,23.90
2018-06-11T15:45:44.777Z,24.00
2018-06-11T15:48:12.312Z,24.00
2018-06-11T15:50:41.956Z,23.90
2018-06-11T15:53:11.278Z,23.90
2018-06-11T16:00:38.311Z,23.80
2018-06-11T16:03:06.506Z,23.70
2018-06-11T16:08:04.405Z,23.70
2018-06-11T16:10:33.048Z,23.70
2018-06-11T16:17:58.107Z,23.70
2018-06-11T16:20:26.834Z,23.80
2018-06-11T16:22:54.985Z,23.80
2018-06-11T16:25:23.474Z,23.70
2018-06-11T16:27:51.084Z,23.60
2018-06-11T16:30:18.682Z,23.60
2018-06-11T16:32:46.204Z,23.60
2018-06-11T16:35:13.811Z,23.50
2018-06-11T16:37:42.407Z,23.50
2018-06-11T16:40:10.490Z,23.60
2018-06-11T16:42:38.795Z,23.50
2018-06-11T16:45:06.849Z,23.60
2018-06-11T16:47:34.473Z,23.70
2018-06-11T16:50:02.031Z,23.70
2018-06-11T16:52:30.986Z,23.70
2018-06-11T16:54:59.747Z,23.70
2018-06-11T17:10:33.405Z,23.70
2018-06-11T17:13:02.752Z,23.40
2018-06-11T17:15:32.299Z,23.40
2018-06-11T17:18:01.217Z,23.40
2018-06-11T17:20:30.072Z,23.50
2018-06-11T17:25:29.409Z,23.50
2018-06-11T17:27:58.244Z,23.50
2018-06-11T17:30:28.607Z,23.60
2018-06-11T17:35:33.226Z,23.50
2018-06-11T17:38:05.867Z,23.40
2018-06-11T17:40:33.775Z,23.50
2018-06-11T17:43:03.418Z,23.40
2018-06-11T17:53:20.272Z,23.50
2018-06-11T17:55:52.536Z,23.50
2018-06-11T17:58:21.470Z,23.40
2018-06-11T18:00:55.185Z,23.40
2018-06-11T18:03:27.802Z,23.40
2018-06-11T18:06:01.927Z,23.30
2018-06-11T18:08:37.368Z,23.30
2018-06-11T18:11:11.521Z,23.20
2018-06-11T18:13:43.006Z,23.20
2018-06-11T18:16:18.226Z,23.10
2018-06-11T18:18:51.362Z,23.10
2018-06-11T18:21:18.934Z,23.10
2018-06-11T18:23:46.996Z,23.00
2018-06-11T18:26:15.472Z,23.00
2018-06-11T18:28:43.574Z,23.00
2018-06-11T18:31:11.240Z,23.10
2018-06-11T18:33:40.278Z,23.00
2018-06-11T18:36:07.953Z,23.00
2018-06-11T18:38:35.774Z,22.90
2018-06-11T18:41:03.676Z,22.90
2018-06-11T18:43:33.184Z,22.80
2018-06-11T18:46:02.111Z,22.80
2018-06-11T18:48:31.061Z,22.80
2018-06-11T18:51:00.620Z,22.80
2018-06-11T18:53:30.783Z,22.70
2018-06-11T18:56:00.419Z,22.80
2018-06-11T18:58:28.382Z,22.80
2018-06-11T19:00:56.134Z,22.80
2018-06-11T19:05:54.160Z,22.80
2018-06-11T19:08:23.436Z,22.80
2018-06-11T19:10:53.039Z,22.80
2018-06-11T19:13:20.574Z,22.80
2018-06-11T19:15:50.034Z,22.80
2018-06-11T19:23:15.092Z,22.70
2018-06-11T19:25:44.062Z,22.70
2018-06-11T19:28:13.781Z,22.70
2018-06-11T19:30:41.393Z,22.70
2018-06-11T19:33:15.832Z,22.70
2018-06-11T19:35:44.195Z,22.60
2018-06-11T19:38:14.079Z,22.60
2018-06-11T19:40:45.450Z,22.50
2018-06-11T19:43:16.990Z,22.50
2018-06-11T19:48:13.744Z,22.40
2018-06-11T19:50:46.932Z,22.40
2018-06-11T19:55:47.021Z,22.40
2018-06-11T19:58:23.609Z,22.40
2018-06-11T20:00:51.813Z,22.40
2018-06-11T20:03:21.705Z,22.40
2018-06-11T20:05:51.239Z,22.40
2018-06-11T20:08:18.798Z,22.40
2018-06-11T20:10:51.792Z,22.40
2018-06-11T20:13:20.596Z,22.30
2018-06-11T20:18:20.773Z,22.20
2018-06-11T20:23:20.433Z,22.20
2018-06-11T20:25:48.997Z,22.20
2018-06-11T20:28:16.709Z,22.20
2018-06-11T20:30:45.410Z,22.10
2018-06-11T20:33:15.347Z,22.10
2018-06-11T20:35:44.013Z,22.10
2018-06-11T20:38:12.665Z,22.20
2018-06-11T20:40:42.520Z,22.20
2018-06-11T20:43:10.196Z,22.20
2018-06-11T20:45:37.964Z,22.20
2018-06-11T20:48:07.994Z,22.10
2018-06-11T20:50:37.198Z,22.00
2018-06-11T20:53:06.891Z,22.00
2018-06-11T20:58:05.944Z,22.10
2018-06-11T21:00:34.748Z,22.10
2018-06-11T21:05:32.151Z,22.10
2018-06-11T21:08:00.320Z,22.00
2018-06-11T21:10:30.240Z,22.00
2018-06-11T21:13:02.497Z,22.00
2018-06-11T21:15:33.000Z,22.00
2018-06-11T21:18:01.114Z,22.00
2018-06-11T21:20:31.527Z,22.00
2018-06-11T21:23:00.404Z,21.90
2018-06-11T21:25:30.202Z,21.90
2018-06-11T21:28:01.667Z,21.90
2018-06-11T21:30:33.889Z,21.90
2018-06-11T21:33:02.890Z,21.90
2018-06-11T21:35:32.950Z,21.80
2018-06-11T21:40:30.225Z,21.80
2018-06-11T21:47:53.924Z,21.80
2018-06-11T21:50:21.589Z,21.80
2018-06-11T21:52:50.139Z,21.80
2018-06-11T21:55:17.772Z,21.80
2018-06-11T21:57:47.115Z,21.80
2018-06-11T22:00:14.675Z,21.70
2018-06-11T22:04:07.335Z,21.60
2018-06-11T22:06:36.314Z,21.60
2018-06-11T22:09:07.937Z,21.50
2018-06-11T22:11:35.951Z,21.50
2018-06-11T22:14:03.623Z,21.50
2018-06-11T22:16:31.810Z,21.50
2018-06-11T22:18:59.399Z,21.40
2018-06-11T22:21:26.955Z,21.50
2018-06-11T22:23:54.679Z,21.40
2018-06-11T22:26:22.211Z,21.40
2018-06-11T22:28:49.854Z,21.40
2018-06-11T22:33:45.854Z,21.30
2018-06-11T22:36:16.147Z,21.30
2018-06-11T22:38:45.159Z,21.30
2018-06-11T22:41:12.842Z,21.30
2018-06-11T22:43:40.380Z,21.30
2018-06-11T22:46:08.980Z,21.30
2018-06-11T22:48:36.985Z,21.30
2018-06-11T22:51:04.885Z,21.20
2018-06-11T22:53:32.426Z,21.20
2018-06-11T22:55:59.990Z,21.20
2018-06-11T22:58:27.564Z,21.20
2018-06-11T23:00:55.065Z,21.20
2018-06-11T23:03:24.129Z,21.20
2018-06-11T23:05:52.280Z,21.10
2018-06-11T23:08:19.827Z,21.10
2018-06-11T23:10:49.909Z,21.10
2018-06-11T23:13:17.434Z,21.10
2018-06-11T23:15:45.215Z,21.20
2018-06-11T23:18:14.043Z,21.20
2018-06-11T23:20:41.606Z,21.10
2018-06-11T23:23:09.141Z,21.10
2018-06-11T23:25:36.723Z,21.10
2018-06-11T23:28:04.504Z,21.10
2018-06-11T23:30:32.031Z,21.00
2018-06-11T23:32:59.553Z,20.90
2018-06-11T23:35:27.117Z,20.90
2018-06-11T23:37:55.872Z,20.90
2018-06-11T23:40:24.786Z,20.90
2018-06-11T23:45:20.711Z,21.00
2018-06-11T23:47:48.254Z,21.00
2018-06-11T23:50:15.795Z,20.90
2018-06-11T23:52:43.373Z,20.90
2018-06-11T23:55:10.913Z,20.90
2018-06-11T23:57:39.651Z,20.80
